Time,TemperatureF,DewpointF,PressureIn,WindDirection,WindDirectionDegrees,WindSpeedMPH,WindSpeedGustMPH,Humidity,HourlyPrecipIn,Conditions,Clouds,dailyrainin,SolarRadiationWatts/m^2,SoftwareType,DateUTC
2013-11-06 00:05:00,53.9,48.5,30.24,South,185,0.0,0.0,82,0.00,,,0.00,0,Wunderground v.1.15,2013-11-06 08:05:00,
2013-11-06 00:15:00,53.3,47.6,30.24,South,185,0.0,0.0,81,0.00,,,0.00,0,Wunderground v.1.15,2013-11-06 08:15:00,
2013-11-06 00:20:00,53.1,47.4,30.24,South,184,0.0,0.0,81,0.00,,,0.00,0,Wunderground v.1.15,2013-11-06 08:20:00,
2013-11-06 00:30:00,52.5,46.5,30.24,South,185,0.0,0.0,80,0.00,,,0.00,0,Wunderground v.1.15,2013-11-06 08:30:00,
2013-11-06 00:40:00,51.9,45.3,30.25,South,185,1.0,3.0,78,0.00,,,0.00,0,Wunderground v.1.15,2013-11-06 08:40:00,
2013-11-06 00:50:00,52.1,45.4,30.25,South,185,2.0,2.0,78,0.00,,,0.00,0,Wunderground v.1.15,2013-11-06 08:50:00,
2013-11-06 01:00:00,52.1,44.8,30.25,South,186,2.0,2.0,76,0.00,,,0.00,0,Wunderground v.1.15,2013-11-06 09:00:00,
2013-11-06 01:05:00,52.2,44.5,30.26,South,185,1.0,2.0,75,0.00,,,0.00,0,Wunderground v.1.15,2013-11-06 09:05:00,
2013-11-06 01:10:00,52.1,44.1,30.25,South,185,0.0,2.0,74,0.00,,,0.00,0,Wunderground v.1.15,2013-11-06 09:10:00,
2013-11-06 01:20:00,52.0,43.6,30.25,South,186,1.0,2.0,73,0.00,,,0.00,0,Wunderground v.1.15,2013-11-06 09:20:00,
2013-11-06 01:26:00,52.0,43.3,30.25,South,185,1.0,2.0,72,0.00,,,0.00,0,Wunderground v.1.15,2013-11-06 09:26:00,
2013-11-06 01:35:00,52.1,43.3,30.25,South,185,2.0,4.0,72,0.00,,,0.00,0,Wunderground v.1.15,2013-11-06 09:35:00,
2013-11-06 01:45:00,52.0,42.9,30.25,South,184,2.0,3.0,71,0.00,,,0.00,0,Wunderground v.1.15,2013-11-06 09:45:00,
2013-11-06 01:50:00,52.1,43.0,30.25,South,184,2.0,3.0,71,0.00,,,0.00,0,Wunderground v.1.15,2013-11-06 09:50:00,
2013-11-06 02:00:00,51.8,42.7,30.25,South,184,3.0,4.0,71,0.00,,,0.00,0,Wunderground v.1.15,2013-11-06 10:00:00,
2013-11-06 02:10:00,52.2,43.4,30.25,South,184,4.0,4.0,72,0.00,,,0.00,0,Wunderground v.1.15,2013-11-06 10:10:00,
2013-11-06 02:20:00,52.1,43.3,30.25,South,184,4.0,4.0,72,0.00,,,0.00,0,Wunderground v.1.15,2013-11-06 10:20:00,
2013-11-06 02:30:00,52.2,43.8,30.25,South,186,3.0,3.0,73,0.00,,,0.00,0,Wunderground v.1.15,2013-11-06 10:30:00,
2013-11-06 02:40:00,52.2,43.8,30.25,South,186,4.0,6.0,73,0.00,,,0.00,0,Wunderground v.1.15,2013-11-06 10:40:00,
2013-11-06 02:50:00,52.2,43.8,30.25,East,99,4.0,4.0,73,0.00,,,0.00,0,Wunderground v.1.15,2013-11-06 10:50:00,
2013-11-06 02:55:00,52.1,43.7,30.24,East,99,4.0,4.0,73,0.00,,,0.00,0,Wunderground v.1.15,2013-11-06 10:55:00,
2013-11-06 03:05:00,52.1,44.4,30.24,East,80,4.0,4.0,75,0.00,,,0.00,0,Wunderground v.1.15,2013-11-06 11:05:00,
2013-11-06 03:15:00,51.7,43.7,30.24,NNW,347,6.0,7.0,74,0.00,,,0.00,0,Wunderground v.1.15,2013-11-06 11:15:00,
2013-11-06 03:20:00,51.8,43.4,30.24,NNW,343,7.0,9.0,73,0.00,,,0.00,0,Wunderground v.1.15,2013-11-06 11:20:00,
2013-11-06 03:30:00,52.8,44.7,30.24,North,354,7.0,7.0,74,0.00,,,0.00,0,Wunderground v.1.15,2013-11-06 11:30:00,
2013-11-06 03:40:00,53.3,46.6,30.24,North,360,6.0,6.0,78,0.00,,,0.00,0,Wunderground v.1.15,2013-11-06 11:40:00,
2013-11-06 03:50:00,53.7,47.7,30.24,North,1,7.0,7.0,80,0.00,,,0.00,0,Wunderground v.1.15,2013-11-06 11:50:00,
2013-11-06 04:00:00,53.4,47.4,30.24,North,1,6.0,7.0,80,0.00,,,0.00,0,Wunderground v.1.15,2013-11-06 12:00:00,
2013-11-06 04:10:00,53.2,47.5,30.25,North,2,4.0,4.0,81,0.00,,,0.00,0,Wunderground v.1.15,2013-11-06 12:10:00,
2013-11-06 04:20:00,53.1,47.7,30.25,North,359,3.0,6.0,82,0.00,,,0.00,0,Wunderground v.1.15,2013-11-06 12:20:00,
2013-11-06 04:25:00,53.0,47.7,30.25,North,1,4.0,6.0,82,0.00,,,0.00,0,Wunderground v.1.15,2013-11-06 12:25:00,
2013-11-06 04:30:00,53.0,47.7,30.25,North,10,4.0,4.0,82,0.00,,,0.00,0,Wunderground v.1.15,2013-11-06 12:30:00,
2013-11-06 04:40:00,52.7,47.7,30.25,North,11,3.0,6.0,83,0.00,,,0.00,0,Wunderground v.1.15,2013-11-06 12:40:00,
2013-11-06 04:50:00,52.6,47.6,30.25,NNE,15,4.0,4.0,83,0.00,,,0.00,0,Wunderground v.1.15,2013-11-06 12:50:00,
2013-11-06 04:55:00,52.6,47.6,30.25,North,9,5.0,7.0,83,0.00,,,0.00,0,Wunderground v.1.15,2013-11-06 12:55:00,
2013-11-06 05:05:00,52.4,47.1,30.26,North,9,6.0,9.0,82,0.00,,,0.00,0,Wunderground v.1.15,2013-11-06 13:05:00,
2013-11-06 05:10:00,52.4,47.1,30.26,NNE,18,6.0,6.0,82,0.00,,,0.00,0,Wunderground v.1.15,2013-11-06 13:10:00,
2013-11-06 05:20:00,52.3,47.0,30.25,North,8,6.0,6.0,82,0.00,,,0.00,0,Wunderground v.1.15,2013-11-06 13:20:00,
2013-11-06 05:25:00,52.2,46.9,30.25,North,8,6.0,6.0,82,0.00,,,0.00,0,Wunderground v.1.15,2013-11-06 13:25:00,
2013-11-06 05:30:00,52.1,46.8,30.25,North,357,6.0,6.0,82,0.00,,,0.00,0,Wunderground v.1.15,2013-11-06 13:30:00,
2013-11-06 05:35:00,52.0,47.0,30.25,North,360,7.0,7.0,83,0.00,,,0.00,0,Wunderground v.1.15,2013-11-06 13:35:00,
2013-11-06 05:45:00,51.9,46.9,30.25,North,3,5.0,6.0,83,0.00,,,0.00,0,Wunderground v.1.15,2013-11-06 13:45:00,
2013-11-06 05:50:00,51.9,46.9,30.25,North,2,3.0,3.0,83,0.00,,,0.00,0,Wunderground v.1.15,2013-11-06 13:50:00,
2013-11-06 06:00:00,51.7,46.7,30.26,North,1,1.0,1.0,83,0.00,,,0.00,0,Wunderground v.1.15,2013-11-06 14:00:00,
2013-11-06 06:05:00,51.7,46.4,30.26,North,3,2.0,3.0,82,0.00,,,0.00,0,Wunderground v.1.15,2013-11-06 14:05:00,
2013-11-06 06:15:00,51.5,46.2,30.26,NNE,16,4.0,4.0,82,0.00,,,0.00,0,Wunderground v.1.15,2013-11-06 14:15:00,
2013-11-06 06:20:00,51.4,45.4,30.26,NNE,24,4.0,5.0,80,0.00,,,0.00,0,Wunderground v.1.15,2013-11-06 14:20:00,
2013-11-06 06:25:00,51.4,45.4,30.26,NNE,20,5.0,6.0,80,0.00,,,0.00,0,Wunderground v.1.15,2013-11-06 14:25:00,
2013-11-06 06:30:00,51.7,45.7,30.26,NNE,19,5.0,6.0,80,0.00,,,0.00,0,Wunderground v.1.15,2013-11-06 14:30:00,
2013-11-06 06:40:00,52.1,45.8,30.26,NNE,16,6.0,6.0,79,0.00,,,0.00,0,Wunderground v.1.15,2013-11-06 14:40:00,
2013-11-06 06:50:00,52.1,44.4,30.26,North,7,7.0,7.0,75,0.00,,,0.00,9,Wunderground v.1.15,2013-11-06 14:50:00,
2013-11-06 06:55:00,52.1,43.7,30.26,North,9,7.0,8.0,73,0.00,,,0.00,12,Wunderground v.1.15,2013-11-06 14:55:00,
2013-11-06 07:05:00,52.4,43.6,30.26,NNE,15,6.0,7.0,72,0.00,,,0.00,26,Wunderground v.1.15,2013-11-06 15:05:00,
2013-11-06 07:10:00,52.8,43.7,30.26,NNE,18,5.0,5.0,71,0.00,,,0.00,35,Wunderground v.1.15,2013-11-06 15:10:00,
2013-11-06 07:20:00,53.8,44.6,30.27,North,10,5.0,6.0,71,0.00,,,0.00,51,Wunderground v.1.15,2013-11-06 15:20:00,
2013-11-06 07:25:00,54.4,43.7,30.27,North,6,6.0,8.0,67,0.00,,,0.00,81,Wunderground v.1.15,2013-11-06 15:25:00,
2013-11-06 07:35:00,55.8,43.0,30.27,North,4,8.0,9.0,62,0.00,,,0.00,105,Wunderground v.1.15,2013-11-06 15:35:00,
2013-11-06 07:40:00,56.5,42.8,30.27,North,6,8.0,8.0,60,0.00,,,0.00,116,Wunderground v.1.15,2013-11-06 15:40:00,
2013-11-06 07:45:00,57.2,43.0,30.27,North,11,7.0,8.0,59,0.00,,,0.00,135,Wunderground v.1.15,2013-11-06 15:45:00,
2013-11-06 07:55:00,58.6,42.9,30.28,NNE,14,7.0,7.0,56,0.00,,,0.00,162,Wunderground v.1.15,2013-11-06 15:55:00,
2013-11-06 08:05:00,60.0,42.3,30.28,NNE,16,5.0,6.0,52,0.00,,,0.00,149,Wunderground v.1.15,2013-11-06 16:05:00,
2013-11-06 08:10:00,60.7,42.5,30.28,NNE,12,5.0,5.0,51,0.00,,,0.00,209,Wunderground v.1.15,2013-11-06 16:10:00,
2013-11-06 08:20:00,62.5,42.0,30.28,NNE,14,5.0,5.0,47,0.00,,,0.00,227,Wunderground v.1.15,2013-11-06 16:20:00,
2013-11-06 08:26:00,63.0,42.4,30.29,NNE,25,6.0,8.0,47,0.00,,,0.00,239,Wunderground v.1.15,2013-11-06 16:26:00,
2013-11-06 08:35:00,63.9,42.1,30.29,NNE,21,7.0,8.0,45,0.00,,,0.00,276,Wunderground v.1.15,2013-11-06 16:35:00,
2013-11-06 08:45:00,64.7,41.7,30.29,NNE,28,7.0,9.0,43,0.00,,,0.00,309,Wunderground v.1.15,2013-11-06 16:45:00,
2013-11-06 08:50:00,65.4,41.7,30.29,SSW,213,7.0,7.0,42,0.00,,,0.00,190,Wunderground v.1.15,2013-11-06 16:50:00,
2013-11-06 09:00:00,65.8,41.4,30.28,NNE,15,7.0,7.0,41,0.00,,,0.00,311,Wunderground v.1.15,2013-11-06 17:00:00,
2013-11-06 09:10:00,66.8,41.7,30.29,NNE,12,7.0,9.0,40,0.00,,,0.00,359,Wunderground v.1.15,2013-11-06 17:10:00,
2013-11-06 09:15:00,67.4,41.6,30.28,NNE,24,7.0,9.0,39,0.00,,,0.00,371,Wunderground v.1.15,2013-11-06 17:15:00,
2013-11-06 09:25:00,68.4,41.1,30.28,NE,34,7.0,9.0,37,0.00,,,0.00,417,Wunderground v.1.15,2013-11-06 17:25:00,
2013-11-06 09:30:00,68.8,40.7,30.28,NNE,21,8.0,8.0,36,0.00,,,0.00,415,Wunderground v.1.15,2013-11-06 17:30:00,
2013-11-06 09:40:00,69.7,40.8,30.28,NNE,31,7.0,7.0,35,0.00,,,0.00,404,Wunderground v.1.15,2013-11-06 17:40:00,
2013-11-06 09:45:00,70.1,40.4,30.28,NE,53,6.0,7.0,34,0.00,,,0.00,417,Wunderground v.1.15,2013-11-06 17:45:00,
2013-11-06 09:55:00,65.7,48.6,30.28,ESE,121,3.0,5.0,54,0.00,,,0.00,462,Wunderground v.1.15,2013-11-06 17:55:00,
2013-11-06 10:00:00,63.8,45.8,30.28,ESE,120,1.0,2.0,52,0.00,,,0.00,476,Wunderground v.1.15,2013-11-06 18:00:00,
2013-11-06 10:10:00,62.7,47.2,30.28,SE,128,2.0,2.0,57,0.00,,,0.00,501,Wunderground v.1.15,2013-11-06 18:10:00,
2013-11-06 10:15:00,63.1,44.2,30.27,SSW,213,2.0,4.0,50,0.00,,,0.00,510,Wunderground v.1.15,2013-11-06 18:15:00,
2013-11-06 10:20:00,63.8,44.8,30.27,SE,128,2.0,3.0,50,0.00,,,0.00,519,Wunderground v.1.15,2013-11-06 18:20:00,
2013-11-06 10:25:00,64.8,45.2,30.27,ESE,120,2.0,3.0,49,0.00,,,0.00,490,Wunderground v.1.15,2013-11-06 18:25:00,
2013-11-06 10:35:00,65.8,47.7,30.27,SE,124,1.0,2.0,52,0.00,,,0.00,473,Wunderground v.1.15,2013-11-06 18:35:00,
2013-11-06 10:40:00,66.6,41.5,30.26,East,90,2.0,5.0,40,0.00,,,0.00,489,Wunderground v.1.15,2013-11-06 18:40:00,
2013-11-06 10:50:00,70.3,38.2,30.26,SSW,213,6.0,6.0,31,0.00,,,0.00,445,Wunderground v.1.15,2013-11-06 18:50:00,
2013-11-06 11:00:00,72.5,38.4,30.25,ENE,64,5.0,5.0,29,0.00,,,0.00,508,Wunderground v.1.15,2013-11-06 19:00:00,
2013-11-06 11:10:00,73.7,39.5,30.25,East,89,4.0,9.0,29,0.00,,,0.00,592,Wunderground v.1.15,2013-11-06 19:10:00,
2013-11-06 11:20:00,72.6,41.8,30.24,SE,136,5.0,5.0,33,0.00,,,0.00,501,Wunderground v.1.15,2013-11-06 19:20:00,
2013-11-06 11:25:00,70.1,41.2,30.24,ESE,122,3.0,5.0,35,0.00,,,0.00,513,Wunderground v.1.15,2013-11-06 19:25:00,
2013-11-06 11:30:00,69.3,41.2,30.24,SE,134,2.0,2.0,36,0.00,,,0.00,554,Wunderground v.1.15,2013-11-06 19:30:00,
2013-11-06 11:40:00,69.1,41.0,30.24,SSE,152,1.0,1.0,36,0.00,,,0.00,547,Wunderground v.1.15,2013-11-06 19:40:00,
2013-11-06 11:50:00,70.4,39.9,30.24,NE,44,3.0,5.0,33,0.00,,,0.00,605,Wunderground v.1.15,2013-11-06 19:50:00,
2013-11-06 12:00:00,74.4,40.1,30.23,ENE,59,3.0,3.0,29,0.00,,,0.00,555,Wunderground v.1.15,2013-11-06 20:00:00,
2013-11-06 12:10:00,76.4,40.9,30.23,ENE,70,5.0,6.0,28,0.00,,,0.00,568,Wunderground v.1.15,2013-11-06 20:10:00,
2013-11-06 12:16:00,76.5,41.0,30.22,NE,37,7.0,7.0,28,0.00,,,0.00,578,Wunderground v.1.15,2013-11-06 20:16:00,
2013-11-06 12:25:00,76.0,41.4,30.22,NE,42,7.0,8.0,29,0.00,,,0.00,510,Wunderground v.1.15,2013-11-06 20:25:00,
2013-11-06 12:30:00,75.9,41.3,30.22,NNE,30,7.0,12.0,29,0.00,,,0.00,517,Wunderground v.1.15,2013-11-06 20:30:00,
2013-11-06 12:40:00,75.9,42.2,30.21,NE,45,7.0,7.0,30,0.00,,,0.00,536,Wunderground v.1.15,2013-11-06 20:40:00,
2013-11-06 12:45:00,76.1,42.4,30.21,ENE,72,6.0,10.0,30,0.00,,,0.00,483,Wunderground v.1.15,2013-11-06 20:45:00,
2013-11-06 12:50:00,76.3,42.6,30.21,East,87,6.0,10.0,30,0.00,,,0.00,485,Wunderground v.1.15,2013-11-06 20:50:00,
2013-11-06 13:00:00,76.0,43.2,30.20,ENE,78,7.0,7.0,31,0.00,,,0.00,524,Wunderground v.1.15,2013-11-06 21:00:00,
2013-11-06 13:10:00,76.3,41.7,30.20,NE,51,6.0,7.0,29,0.00,,,0.00,366,Wunderground v.1.15,2013-11-06 21:10:00,
2013-11-06 13:20:00,75.9,41.3,30.20,ENE,78,6.0,8.0,29,0.00,,,0.00,376,Wunderground v.1.15,2013-11-06 21:20:00,
2013-11-06 13:25:00,75.6,41.1,30.19,East,99,7.0,8.0,29,0.00,,,0.00,348,Wunderground v.1.15,2013-11-06 21:25:00,
2013-11-06 13:35:00,75.9,41.3,30.19,ENE,75,6.0,8.0,29,0.00,,,0.00,508,Wunderground v.1.15,2013-11-06 21:35:00,
2013-11-06 13:40:00,76.6,41.0,30.19,ENE,66,6.0,7.0,28,0.00,,,0.00,425,Wunderground v.1.15,2013-11-06 21:40:00,
2013-11-06 13:45:00,76.8,41.2,30.19,ENE,57,6.0,7.0,28,0.00,,,0.00,411,Wunderground v.1.15,2013-11-06 21:45:00,
2013-11-06 13:50:00,77.0,40.4,30.19,ENE,74,5.0,9.0,27,0.00,,,0.00,401,Wunderground v.1.15,2013-11-06 21:50:00,
2013-11-06 14:00:00,77.2,40.6,30.19,East,83,5.0,6.0,27,0.00,,,0.00,441,Wunderground v.1.15,2013-11-06 22:00:00,
2013-11-06 14:05:00,76.9,40.4,30.19,East,85,5.0,6.0,27,0.00,,,0.00,461,Wunderground v.1.15,2013-11-06 22:05:00,
2013-11-06 14:15:00,76.1,39.7,30.19,ESE,105,7.0,11.0,27,0.00,,,0.00,452,Wunderground v.1.15,2013-11-06 22:15:00,
2013-11-06 14:25:00,75.3,39.9,30.19,East,91,7.0,9.0,28,0.00,,,0.00,420,Wunderground v.1.15,2013-11-06 22:25:00,
2013-11-06 14:35:00,75.9,41.3,30.19,East,82,3.0,4.0,29,0.00,,,0.00,318,Wunderground v.1.15,2013-11-06 22:35:00,
2013-11-06 14:40:00,75.8,40.4,30.18,East,89,3.0,3.0,28,0.00,,,0.00,320,Wunderground v.1.15,2013-11-06 22:40:00,
2013-11-06 14:50:00,75.5,40.1,30.19,East,84,4.0,8.0,28,0.00,,,0.00,244,Wunderground v.1.15,2013-11-06 22:50:00,
2013-11-06 14:55:00,74.9,39.6,30.19,East,91,5.0,8.0,28,0.00,,,0.00,255,Wunderground v.1.15,2013-11-06 22:55:00,
2013-11-06 15:00:00,74.6,40.2,30.19,East,94,6.0,6.0,29,0.00,,,0.00,239,Wunderground v.1.15,2013-11-06 23:00:00,
2013-11-06 15:05:00,74.4,40.1,30.19,SSW,213,5.0,6.0,29,0.00,,,0.00,227,Wunderground v.1.15,2013-11-06 23:05:00,
2013-11-06 15:15:00,73.2,39.9,30.19,East,95,6.0,7.0,30,0.00,,,0.00,192,Wunderground v.1.15,2013-11-06 23:15:00,
2013-11-06 15:20:00,72.9,39.6,30.19,ENE,78,7.0,7.0,30,0.00,,,0.00,181,Wunderground v.1.15,2013-11-06 23:20:00,
2013-11-06 15:25:00,72.8,39.5,30.18,ENE,73,6.0,8.0,30,0.00,,,0.00,183,Wunderground v.1.15,2013-11-06 23:25:00,
2013-11-06 15:35:00,72.8,39.5,30.18,East,88,6.0,6.0,30,0.00,,,0.00,156,Wunderground v.1.15,2013-11-06 23:35:00,
2013-11-06 15:40:00,72.7,39.5,30.18,East,90,5.0,7.0,30,0.00,,,0.00,141,Wunderground v.1.15,2013-11-06 23:40:00,
2013-11-06 15:45:00,72.4,40.0,30.18,East,91,5.0,7.0,31,0.00,,,0.00,151,Wunderground v.1.15,2013-11-06 23:45:00,
2013-11-06 15:50:00,72.1,40.6,30.18,East,89,5.0,7.0,32,0.00,,,0.00,151,Wunderground v.1.15,2013-11-06 23:50:00,
2013-11-06 15:55:00,71.8,40.3,30.18,East,93,5.0,8.0,32,0.00,,,0.00,135,Wunderground v.1.15,2013-11-06 23:55:00,
2013-11-06 16:05:00,71.5,40.1,30.18,ENE,77,5.0,6.0,32,0.00,,,0.00,84,Wunderground v.1.15,2013-11-07 00:05:00,
2013-11-06 16:10:00,71.4,40.8,30.18,ENE,78,4.0,4.0,33,0.00,,,0.00,72,Wunderground v.1.15,2013-11-07 00:10:00,
2013-11-06 16:15:00,71.2,40.6,30.17,ENE,76,4.0,4.0,33,0.00,,,0.00,62,Wunderground v.1.15,2013-11-07 00:15:00,
2013-11-06 16:25:00,70.7,40.9,30.17,ENE,73,3.0,4.0,34,0.00,,,0.00,40,Wunderground v.1.15,2013-11-07 00:25:00,
2013-11-06 16:30:00,70.4,40.7,30.17,ENE,76,3.0,4.0,34,0.00,,,0.00,32,Wunderground v.1.15,2013-11-07 00:30:00,
2013-11-06 16:35:00,70.2,41.3,30.17,ENE,77,3.0,5.0,35,0.00,,,0.00,26,Wunderground v.1.15,2013-11-07 00:35:00,
2013-11-06 16:45:00,69.6,41.5,30.17,ENE,78,2.0,3.0,36,0.00,,,0.00,16,Wunderground v.1.15,2013-11-07 00:45:00,
2013-11-06 16:50:00,69.3,41.2,30.17,ENE,78,2.0,2.0,36,0.00,,,0.00,11,Wunderground v.1.15,2013-11-07 00:50:00,
2013-11-06 17:00:00,68.7,42.1,30.17,ENE,76,2.0,2.0,38,0.00,,,0.00,0,Wunderground v.1.15,2013-11-07 01:00:00,
2013-11-06 17:05:00,68.4,41.8,30.17,ENE,76,1.0,2.0,38,0.00,,,0.00,0,Wunderground v.1.15,2013-11-07 01:05:00,
2013-11-06 17:15:00,67.8,41.3,30.17,ENE,76,2.0,3.0,38,0.00,,,0.00,0,Wunderground v.1.15,2013-11-07 01:15:00,
2013-11-06 17:20:00,67.6,41.7,30.18,ENE,76,1.0,1.0,39,0.00,,,0.00,0,Wunderground v.1.15,2013-11-07 01:20:00,
2013-11-06 17:30:00,67.1,41.3,30.17,ENE,76,2.0,2.0,39,0.00,,,0.00,0,Wunderground v.1.15,2013-11-07 01:30:00,
2013-11-06 17:35:00,66.9,41.8,30.18,ENE,75,2.0,4.0,40,0.00,,,0.00,0,Wunderground v.1.15,2013-11-07 01:35:00,
2013-11-06 17:45:00,66.6,41.5,30.18,ENE,75,2.0,3.0,40,0.00,,,0.00,0,Wunderground v.1.15,2013-11-07 01:45:00,
2013-11-06 17:50:00,66.5,41.4,30.18,ENE,76,2.0,3.0,40,0.00,,,0.00,0,Wunderground v.1.15,2013-11-07 01:50:00,
2013-11-06 18:00:00,66.3,41.2,30.18,ENE,76,2.0,2.0,40,0.00,,,0.00,0,Wunderground v.1.15,2013-11-07 02:00:00,
2013-11-06 18:05:00,66.4,40.7,30.18,ENE,75,2.0,4.0,39,0.00,,,0.00,0,Wunderground v.1.15,2013-11-07 02:05:00,
2013-11-06 18:20:00,66.6,40.9,30.18,East,88,4.0,4.0,39,0.00,,,0.00,0,Wunderground v.1.15,2013-11-07 02:20:00,
2013-11-06 18:25:00,66.6,40.9,30.18,East,89,4.0,4.0,39,0.00,,,0.00,0,Wunderground v.1.15,2013-11-07 02:25:00,
2013-11-06 18:30:00,66.6,40.9,30.18,East,89,3.0,3.0,39,0.00,,,0.00,0,Wunderground v.1.15,2013-11-07 02:30:00,
2013-11-06 18:35:00,66.6,40.9,30.18,East,89,2.0,3.0,39,0.00,,,0.00,0,Wunderground v.1.15,2013-11-07 02:35:00,
2013-11-06 18:45:00,66.4,41.3,30.18,East,88,1.0,2.0,40,0.00,,,0.00,0,Wunderground v.1.15,2013-11-07 02:45:00,
2013-11-06 18:50:00,66.2,41.2,30.18,East,89,0.0,0.0,40,0.00,,,0.00,0,Wunderground v.1.15,2013-11-07 02:50:00,
2013-11-06 18:55:00,66.1,40.4,30.18,East,88,0.0,0.0,39,0.00,,,0.00,0,Wunderground v.1.15,2013-11-07 02:55:00,
2013-11-06 19:05:00,66.1,41.1,30.18,East,88,1.0,5.0,40,0.00,,,0.00,0,Wunderground v.1.15,2013-11-07 03:05:00,
2013-11-06 19:10:00,66.3,41.2,30.18,SE,124,3.0,8.0,40,0.00,,,0.00,0,Wunderground v.1.15,2013-11-07 03:10:00,
2013-11-06 19:15:00,66.4,41.3,30.18,ESE,110,5.0,8.0,40,0.00,,,0.00,0,Wunderground v.1.15,2013-11-07 03:15:00,
2013-11-06 19:25:00,66.5,40.8,30.18,ESE,112,7.0,9.0,39,0.00,,,0.00,0,Wunderground v.1.15,2013-11-07 03:25:00,
2013-11-06 19:35:00,66.7,40.3,30.18,ESE,110,4.0,5.0,38,0.00,,,0.00,0,Wunderground v.1.15,2013-11-07 03:35:00,
2013-11-06 19:40:00,66.9,40.5,30.18,ESE,107,5.0,5.0,38,0.00,,,0.00,0,Wunderground v.1.15,2013-11-07 03:40:00,
2013-11-06 19:50:00,66.3,43.7,30.18,ESE,108,1.0,1.0,44,0.00,,,0.00,0,Wunderground v.1.15,2013-11-07 03:50:00,
2013-11-06 20:00:00,65.7,44.3,30.19,ESE,107,0.0,0.0,46,0.00,,,0.00,0,Wunderground v.1.15,2013-11-07 04:00:00,
2013-11-06 20:10:00,65.5,45.3,30.19,ESE,107,0.0,0.0,48,0.00,,,0.00,0,Wunderground v.1.15,2013-11-07 04:10:00,
2013-11-06 20:15:00,65.2,43.3,30.19,ESE,108,0.0,0.0,45,0.00,,,0.00,0,Wunderground v.1.15,2013-11-07 04:15:00,
2013-11-06 20:25:00,64.7,46.7,30.19,ESE,107,0.0,0.0,52,0.00,,,0.00,0,Wunderground v.1.15,2013-11-07 04:25:00,
2013-11-06 20:35:00,64.0,44.4,30.19,ESE,108,0.0,0.0,49,0.00,,,0.00,0,Wunderground v.1.15,2013-11-07 04:35:00,
2013-11-06 20:40:00,63.8,44.3,30.19,ESE,107,0.0,0.0,49,0.00,,,0.00,0,Wunderground v.1.15,2013-11-07 04:40:00,
2013-11-06 20:50:00,63.3,43.3,30.19,ESE,108,0.0,0.0,48,0.00,,,0.00,0,Wunderground v.1.15,2013-11-07 04:50:00,
2013-11-06 20:55:00,63.1,42.5,30.19,ESE,107,0.0,2.0,47,0.00,,,0.00,0,Wunderground v.1.15,2013-11-07 04:55:00,
2013-11-06 21:05:00,62.6,42.6,30.19,ESE,108,1.0,4.0,48,0.00,,,0.00,0,Wunderground v.1.15,2013-11-07 05:05:00,
2013-11-06 21:15:00,62.2,42.3,30.19,ESE,107,4.0,4.0,48,0.00,,,0.00,0,Wunderground v.1.15,2013-11-07 05:15:00,
2013-11-06 21:20:00,62.0,42.1,30.20,ESE,107,4.0,4.0,48,0.00,,,0.00,0,Wunderground v.1.15,2013-11-07 05:20:00,
2013-11-06 21:25:00,61.9,42.0,30.20,ENE,78,4.0,4.0,48,0.00,,,0.00,0,Wunderground v.1.15,2013-11-07 05:25:00,
2013-11-06 21:30:00,61.9,42.0,30.20,ENE,62,4.0,4.0,48,0.00,,,0.00,0,Wunderground v.1.15,2013-11-07 05:30:00,
2013-11-06 21:35:00,61.8,41.9,30.20,NE,54,4.0,4.0,48,0.00,,,0.00,0,Wunderground v.1.15,2013-11-07 05:35:00,
2013-11-06 21:45:00,61.6,41.7,30.20,NE,39,4.0,4.0,48,0.00,,,0.00,0,Wunderground v.1.15,2013-11-07 05:45:00,
2013-11-06 21:55:00,61.4,41.5,30.20,NNE,23,5.0,5.0,48,0.00,,,0.00,0,Wunderground v.1.15,2013-11-07 05:55:00,
2013-11-06 22:01:00,61.2,41.9,30.20,NNE,22,5.0,5.0,49,0.00,,,0.00,0,Wunderground v.1.15,2013-11-07 06:01:00,
2013-11-06 22:10:00,61.0,44.2,30.20,NNE,21,5.0,5.0,54,0.00,,,0.00,0,Wunderground v.1.15,2013-11-07 06:10:00,
2013-11-06 22:20:00,60.6,47.1,30.20,NNE,22,4.0,4.0,61,0.00,,,0.00,0,Wunderground v.1.15,2013-11-07 06:20:00,
2013-11-06 22:30:00,60.1,48.3,30.20,NNE,18,4.0,4.0,65,0.00,,,0.00,0,Wunderground v.1.15,2013-11-07 06:30:00,
2013-11-06 22:35:00,59.9,47.7,30.20,NNE,16,4.0,4.0,64,0.00,,,0.00,0,Wunderground v.1.15,2013-11-07 06:35:00,
2013-11-06 22:45:00,59.8,47.2,30.20,NNE,18,3.0,4.0,63,0.00,,,0.00,0,Wunderground v.1.15,2013-11-07 06:45:00,
2013-11-06 22:55:00,59.7,47.1,30.20,NNE,17,0.0,1.0,63,0.00,,,0.00,0,Wunderground v.1.15,2013-11-07 06:55:00,
2013-11-06 23:05:00,59.5,47.3,30.20,NNE,16,0.0,0.0,64,0.00,,,0.00,0,Wunderground v.1.15,2013-11-07 07:05:00,
2013-11-06 23:15:00,59.4,47.6,30.19,NNE,16,0.0,0.0,65,0.00,,,0.00,0,Wunderground v.1.15,2013-11-07 07:15:00,
2013-11-06 23:25:00,59.4,47.6,30.19,NNE,17,0.0,0.0,65,0.00,,,0.00,0,Wunderground v.1.15,2013-11-07 07:25:00,
2013-11-06 23:30:00,59.3,47.5,30.19,NNE,17,0.0,0.0,65,0.00,,,0.00,0,Wunderground v.1.15,2013-11-07 07:30:00,
2013-11-06 23:35:00,59.0,47.2,30.19,NNE,17,0.0,0.0,65,0.00,,,0.00,0,Wunderground v.1.15,2013-11-07 07:35:00,
2013-11-06 23:45:00,58.5,46.4,30.18,NNE,17,0.0,0.0,64,0.00,,,0.00,0,Wunderground v.1.15,2013-11-07 07:45:00,
2013-11-06 23:50:00,58.4,46.7,30.18,NNE,16,0.0,0.0,65,0.00,,,0.00,0,Wunderground v.1.15,2013-11-07 07:50:00,